Battleford, Canada
Current Conditions -  °F | °C
As of 4:00 PM on Friday 28 Nov 2014 (Local Time) from CYQW Reporting Station
Light Snow Light Snow  
Wind Chill: -11°   Ceiling: 4200
Heat Index:   Visibility: 5mi
Dew Point: -4°   Wind: 7mph
Humidity: 78%   Direction: 50°NE
Pressure: 29.69"   Gusts: NA
Location:  52.77°N, 108.3°W
Report Text: CYQW 282200Z AUTO 05006KT 5SM -SN SCT035 BKN042 OVC050 M17/M20 A2969 RMK SLP103
Loading
Personal Weather Stations






























Interactive Weather Map New forecast layout! Learn more

10-Day Weather Forecast

Advertisements
Track Severe Weather on mobile